Terminal Aerodrome Forecast
Issued by NWS

Home | Current Version | Previous Version | Text Only | Print | Product List | Glossary On
Versions: 1 2 3 4 5 6 7 8 9 10 11 12 13 14 15 16 17 18 19 20 21 22 23 24
561
FTUS45 KGJT 311126
TAFTEX
TAF
KTEX 311126Z 3112/0112 11007KT P6SM SCT250
     FM311500 14004KT P6SM SCT200
     FM311600 26008KT P6SM FEW120 SCT200
     FM311900 28010KT P6SM VCSH SCT100 SCT200
     FM312300 33010KT P6SM FEW140 SCT250
     FM010500 09005KT P6SM SCT250=

USA.gov is the U.S. government's official web portal to all federal, state and local government web resources and services.